sensor_id;sensor_type;location;lat;lon;timestamp;P1;P2;P0
12542;PMS3003;6337;49.556;25.594;2022-08-01T06:32:11;17.20;5.13;
12542;PMS3003;6337;49.556;25.594;2022-08-01T06:34:38;8.20;5.20;
12542;PMS3003;6337;49.556;25.594;2022-08-01T06:37:06;5.87;5.30;
12542;PMS3003;6337;49.556;25.594;2022-08-01T06:39:33;6.23;5.20;
12542;PMS3003;6337;49.556;25.594;2022-08-01T06:42:01;6.80;4.97;
12542;PMS3003;6337;49.556;25.594;2022-08-01T06:44:28;10.00;5.10;
12542;PMS3003;6337;49.556;25.594;2022-08-01T06:46:55;8.37;7.37;
12542;PMS3003;6337;49.556;25.594;2022-08-01T06:49:25;11.10;7.00;
12542;PMS3003;6337;49.556;25.594;2022-08-01T06:51:52;8.50;6.33;
12542;PMS3003;6337;49.556;25.594;2022-08-01T06:54:19;10.73;6.63;
12542;PMS3003;6337;49.556;25.594;2022-08-01T06:56:47;16.73;9.10;
12542;PMS3003;6337;49.556;25.594;2022-08-01T06:59:15;9.37;7.47;
12542;PMS3003;6337;49.556;25.594;2022-08-01T07:01:42;7.40;6.17;
12542;PMS3003;6337;49.556;25.594;2022-08-01T07:04:09;9.67;7.27;
12542;PMS3003;6337;49.556;25.594;2022-08-01T07:06:39;8.50;6.37;
12542;PMS3003;6337;49.556;25.594;2022-08-01T07:09:06;9.40;7.30;
12542;PMS3003;6337;49.556;25.594;2022-08-01T07:11:35;7.33;5.73;
12542;PMS3003;6337;49.556;25.594;2022-08-01T07:14:02;8.83;6.50;
12542;PMS3003;6337;49.556;25.594;2022-08-01T07:16:30;12.90;8.63;
12542;PMS3003;6337;49.556;25.594;2022-08-01T07:18:57;9.60;8.03;
12542;PMS3003;6337;49.556;25.594;2022-08-01T07:21:25;11.00;6.00;
12542;PMS3003;6337;49.556;25.594;2022-08-01T07:23:53;13.17;7.60;
12542;PMS3003;6337;49.556;25.594;2022-08-01T07:26:20;13.33;11.60;
12542;PMS3003;6337;49.556;25.594;2022-08-01T07:28:47;15.13;9.60;
12542;PMS3003;6337;49.556;25.594;2022-08-01T07:31:15;11.07;8.80;
12542;PMS3003;6337;49.556;25.594;2022-08-01T07:33:42;11.80;7.60;
12542;PMS3003;6337;49.556;25.594;2022-08-01T07:36:09;10.53;8.67;
12542;PMS3003;6337;49.556;25.594;2022-08-01T07:38:37;10.73;7.23;
12542;PMS3003;6337;49.556;25.594;2022-08-01T07:41:05;8.87;6.70;
12542;PMS3003;6337;49.556;25.594;2022-08-01T07:43:33;11.20;6.53;
12542;PMS3003;6337;49.556;25.594;2022-08-01T07:46:01;8.30;6.80;
12542;PMS3003;6337;49.556;25.594;2022-08-01T07:48:28;7.00;6.10;
12542;PMS3003;6337;49.556;25.594;2022-08-01T07:50:55;8.30;7.10;
12542;PMS3003;6337;49.556;25.594;2022-08-01T07:53:22;8.53;5.37;
12542;PMS3003;6337;49.556;25.594;2022-08-01T07:55:50;8.10;5.37;
12542;PMS3003;6337;49.556;25.594;2022-08-01T07:58:18;7.13;5.77;
12542;PMS3003;6337;49.556;25.594;2022-08-01T08:00:45;4.63;4.20;
12542;PMS3003;6337;49.556;25.594;2022-08-01T08:03:13;5.80;4.33;
12542;PMS3003;6337;49.556;25.594;2022-08-01T08:05:40;5.43;3.93;
12542;PMS3003;6337;49.556;25.594;2022-08-01T08:08:07;4.40;3.20;
12542;PMS3003;6337;49.556;25.594;2022-08-01T08:10:35;5.93;3.53;
12542;PMS3003;6337;49.556;25.594;2022-08-01T08:13:02;7.30;4.30;
12542;PMS3003;6337;49.556;25.594;2022-08-01T08:15:31;5.60;4.00;
12542;PMS3003;6337;49.556;25.594;2022-08-01T08:17:59;4.80;4.40;
12542;PMS3003;6337;49.556;25.594;2022-08-01T08:20:26;6.20;3.83;
12542;PMS3003;6337;49.556;25.594;2022-08-01T08:22:54;5.97;4.40;
12542;PMS3003;6337;49.556;25.594;2022-08-01T08:25:22;9.23;4.00;
12542;PMS3003;6337;49.556;25.594;2022-08-01T08:27:50;4.33;4.03;
12542;PMS3003;6337;49.556;25.594;2022-08-01T08:30:17;3.77;3.47;
12542;PMS3003;6337;49.556;25.594;2022-08-01T08:32:46;3.73;3.43;
12542;PMS3003;6337;49.556;25.594;2022-08-01T08:35:14;3.73;3.37;
12542;PMS3003;6337;49.556;25.594;2022-08-01T08:37:41;4.93;3.70;
12542;PMS3003;6337;49.556;25.594;2022-08-01T08:40:09;3.90;3.60;
12542;PMS3003;6337;49.556;25.594;2022-08-01T08:42:37;6.10;4.23;
12542;PMS3003;6337;49.556;25.594;2022-08-01T08:45:06;3.10;2.80;
12542;PMS3003;6337;49.556;25.594;2022-08-01T08:47:35;3.93;3.50;
12542;PMS3003;6337;49.556;25.594;2022-08-01T08:50:04;3.27;2.37;
12542;PMS3003;6337;49.556;25.594;2022-08-01T08:52:33;3.93;3.63;
12542;PMS3003;6337;49.556;25.594;2022-08-01T08:55:02;3.90;3.60;
12542;PMS3003;6337;49.556;25.594;2022-08-01T08:57:30;4.53;3.50;
12542;PMS3003;6337;49.556;25.594;2022-08-01T08:59:57;4.40;2.93;
12542;PMS3003;6337;49.556;25.594;2022-08-01T09:02:24;5.20;2.97;
12542;PMS3003;6337;49.556;25.594;2022-08-01T09:04:51;4.13;3.60;
12542;PMS3003;6337;49.556;25.594;2022-08-01T09:07:21;4.60;3.40;
12542;PMS3003;6337;49.556;25.594;2022-08-01T09:09:51;3.23;3.03;
12542;PMS3003;6337;49.556;25.594;2022-08-01T09:12:18;3.40;3.10;
12542;PMS3003;6337;49.556;25.594;2022-08-01T09:14:46;4.00;3.70;
12542;PMS3003;6337;49.556;25.594;2022-08-01T09:17:15;3.40;2.50;
12542;PMS3003;6337;49.556;25.594;2022-08-01T09:19:43;3.67;3.40;
12542;PMS3003;6337;49.556;25.594;2022-08-01T09:22:13;4.00;3.67;
12542;PMS3003;6337;49.556;25.594;2022-08-01T09:24:57;3.00;2.80;
12542;PMS3003;6337;49.556;25.594;2022-08-01T09:27:26;3.80;2.70;
12542;PMS3003;6337;49.556;25.594;2022-08-01T09:29:53;2.27;2.03;
12542;PMS3003;6337;49.556;25.594;2022-08-01T09:32:20;2.20;2.10;
12542;PMS3003;6337;49.556;25.594;2022-08-01T09:34:48;5.53;2.60;
12542;PMS3003;6337;49.556;25.594;2022-08-01T09:37:15;2.60;2.40;
12542;PMS3003;6337;49.556;25.594;2022-08-01T09:39:43;2.40;2.17;
12542;PMS3003;6337;49.556;25.594;2022-08-01T09:42:22;2.53;2.40;
12542;PMS3003;6337;49.556;25.594;2022-08-01T09:44:50;2.33;2.23;
12542;PMS3003;6337;49.556;25.594;2022-08-01T09:47:18;4.63;2.20;
12542;PMS3003;6337;49.556;25.594;2022-08-01T09:49:53;3.00;2.80;
12542;PMS3003;6337;49.556;25.594;2022-08-01T09:52:22;3.07;2.20;
12542;PMS3003;6337;49.556;25.594;2022-08-01T09:54:54;2.87;2.67;
12542;PMS3003;6337;49.556;25.594;2022-08-01T09:57:24;3.27;3.07;
12542;PMS3003;6337;49.556;25.594;2022-08-01T09:59:52;3.07;2.73;
12542;PMS3003;6337;49.556;25.594;2022-08-01T10:02:27;3.00;2.80;
12542;PMS3003;6337;49.556;25.594;2022-08-01T10:04:56;2.10;2.00;
12542;PMS3003;6337;49.556;25.594;2022-08-01T10:07:23;2.83;2.63;
12542;PMS3003;6337;49.556;25.594;2022-08-01T10:09:51;3.73;3.10;
12542;PMS3003;6337;49.556;25.594;2022-08-01T10:12:22;8.30;2.90;
12542;PMS3003;6337;49.556;25.594;2022-08-01T10:14:51;2.80;2.60;
12542;PMS3003;6337;49.556;25.594;2022-08-01T10:17:20;2.90;2.70;
12542;PMS3003;6337;49.556;25.594;2022-08-01T10:19:47;2.17;2.07;
12542;PMS3003;6337;49.556;25.594;2022-08-01T10:22:15;4.13;2.43;
12542;PMS3003;6337;49.556;25.594;2022-08-01T10:24:43;3.60;3.30;
12542;PMS3003;6337;49.556;25.594;2022-08-01T10:27:13;7.73;3.97;
12542;PMS3003;6337;49.556;25.594;2022-08-01T10:29:45;4.27;3.87;
12542;PMS3003;6337;49.556;25.594;2022-08-01T10:32:13;3.67;3.40;
12542;PMS3003;6337;49.556;25.594;2022-08-01T10:34:42;4.80;3.10;
12542;PMS3003;6337;49.556;25.594;2022-08-01T10:37:10;5.20;4.47;
12542;PMS3003;6337;49.556;25.594;2022-08-01T10:39:37;4.60;4.20;
12542;PMS3003;6337;49.556;25.594;2022-08-01T10:42:06;5.00;4.40;
12542;PMS3003;6337;49.556;25.594;2022-08-01T10:44:38;4.20;3.90;
12542;PMS3003;6337;49.556;25.594;2022-08-01T10:47:08;3.47;3.20;
12542;PMS3003;6337;49.556;25.594;2022-08-01T10:49:39;3.80;3.53;
12542;PMS3003;6337;49.556;25.594;2022-08-01T10:52:13;4.30;4.00;
12542;PMS3003;6337;49.556;25.594;2022-08-01T10:54:41;4.03;3.73;
12542;PMS3003;6337;49.556;25.594;2022-08-01T10:57:08;5.10;4.60;
12542;PMS3003;6337;49.556;25.594;2022-08-01T10:59:47;3.97;3.67;
12542;PMS3003;6337;49.556;25.594;2022-08-01T11:02:26;3.70;3.43;
12542;PMS3003;6337;49.556;25.594;2022-08-01T11:04:55;3.90;3.60;
12542;PMS3003;6337;49.556;25.594;2022-08-01T11:07:34;3.30;3.10;
12542;PMS3003;6337;49.556;25.594;2022-08-01T11:10:15;3.97;2.93;
12542;PMS3003;6337;49.556;25.594;2022-08-01T11:12:46;3.87;3.40;
12542;PMS3003;6337;49.556;25.594;2022-08-01T11:15:18;6.10;2.93;
12542;PMS3003;6337;49.556;25.594;2022-08-01T11:17:55;3.13;2.93;
12542;PMS3003;6337;49.556;25.594;2022-08-01T11:20:23;3.00;2.70;
12542;PMS3003;6337;49.556;25.594;2022-08-01T11:26:08;2.83;2.63;
12542;PMS3003;6337;49.556;25.594;2022-08-01T11:28:36;2.93;2.73;
12542;PMS3003;6337;49.556;25.594;2022-08-01T11:31:24;2.90;2.60;
12542;PMS3003;6337;49.556;25.594;2022-08-01T11:33:57;9.90;2.07;
12542;PMS3003;6337;49.556;25.594;2022-08-01T11:36:25;2.80;2.60;
12542;PMS3003;6337;49.556;25.594;2022-08-01T11:39:15;3.80;3.50;
12542;PMS3003;6337;49.556;25.594;2022-08-01T11:41:46;4.37;3.20;
12542;PMS3003;6337;49.556;25.594;2022-08-01T11:44:15;2.60;2.40;
12542;PMS3003;6337;49.556;25.594;2022-08-01T11:46:45;3.37;2.93;
12542;PMS3003;6337;49.556;25.594;2022-08-01T11:52:26;9.77;3.60;
12542;PMS3003;6337;49.556;25.594;2022-08-01T11:54:55;2.67;2.47;
12542;PMS3003;6337;49.556;25.594;2022-08-01T11:57:26;7.30;2.97;
12542;PMS3003;6337;49.556;25.594;2022-08-01T11:59:56;2.53;1.97;
12542;PMS3003;6337;49.556;25.594;2022-08-01T12:02:25;2.97;2.77;
12542;PMS3003;6337;49.556;25.594;2022-08-01T12:04:54;2.30;2.20;
12542;PMS3003;6337;49.556;25.594;2022-08-01T12:07:23;3.07;2.70;
12542;PMS3003;6337;49.556;25.594;2022-08-01T12:10:00;2.70;2.33;
12542;PMS3003;6337;49.556;25.594;2022-08-01T12:12:28;8.27;3.17;
12542;PMS3003;6337;49.556;25.594;2022-08-01T12:14:57;2.47;2.27;
12542;PMS3003;6337;49.556;25.594;2022-08-01T12:17:29;9.13;3.17;
12542;PMS3003;6337;49.556;25.594;2022-08-01T12:19:57;5.20;2.70;
12542;PMS3003;6337;49.556;25.594;2022-08-01T12:22:25;2.57;2.37;
12542;PMS3003;6337;49.556;25.594;2022-08-01T12:24:52;3.53;3.23;
12542;PMS3003;6337;49.556;25.594;2022-08-01T12:27:25;3.10;2.33;
12542;PMS3003;6337;49.556;25.594;2022-08-01T12:29:53;5.50;2.73;
12542;PMS3003;6337;49.556;25.594;2022-08-01T12:32:26;3.50;3.07;
12542;PMS3003;6337;49.556;25.594;2022-08-01T12:34:55;1.90;1.80;
12542;PMS3003;6337;49.556;25.594;2022-08-01T12:37:23;2.80;2.60;
12542;PMS3003;6337;49.556;25.594;2022-08-01T12:39:51;2.23;2.13;
12542;PMS3003;6337;49.556;25.594;2022-08-01T12:42:19;5.93;3.00;
12542;PMS3003;6337;49.556;25.594;2022-08-01T12:44:49;2.33;2.23;
12542;PMS3003;6337;49.556;25.594;2022-08-01T12:47:18;2.40;2.30;
12542;PMS3003;6337;49.556;25.594;2022-08-01T12:49:47;3.27;1.73;
12542;PMS3003;6337;49.556;25.594;2022-08-01T12:52:15;2.20;2.00;
12542;PMS3003;6337;49.556;25.594;2022-08-01T12:55:07;3.43;2.23;
12542;PMS3003;6337;49.556;25.594;2022-08-01T12:57:39;2.30;1.50;
12542;PMS3003;6337;49.556;25.594;2022-08-01T13:00:16;3.80;2.37;
12542;PMS3003;6337;49.556;25.594;2022-08-01T13:02:46;2.00;1.90;
12542;PMS3003;6337;49.556;25.594;2022-08-01T13:05:15;1.93;1.83;
12542;PMS3003;6337;49.556;25.594;2022-08-01T13:07:46;1.40;1.30;
12542;PMS3003;6337;49.556;25.594;2022-08-01T13:10:24;3.73;1.80;
12542;PMS3003;6337;49.556;25.594;2022-08-01T13:12:53;2.10;1.63;
12542;PMS3003;6337;49.556;25.594;2022-08-01T13:15:27;1.73;1.53;
12542;PMS3003;6337;49.556;25.594;2022-08-01T13:17:58;5.63;1.60;
12542;PMS3003;6337;49.556;25.594;2022-08-01T13:20:32;1.50;1.40;
12542;PMS3003;6337;49.556;25.594;2022-08-01T13:23:10;3.53;1.50;
12542;PMS3003;6337;49.556;25.594;2022-08-01T13:25:48;2.13;2.00;
12542;PMS3003;6337;49.556;25.594;2022-08-01T13:28:17;1.97;1.87;
12542;PMS3003;6337;49.556;25.594;2022-08-01T13:33:40;2.40;2.20;
12542;PMS3003;6337;49.556;25.594;2022-08-01T13:36:10;3.43;3.13;
12542;PMS3003;6337;49.556;25.594;2022-08-01T13:38:38;3.10;2.90;
12542;PMS3003;6337;49.556;25.594;2022-08-01T13:41:23;3.10;2.90;
12542;PMS3003;6337;49.556;25.594;2022-08-01T13:43:50;3.13;2.60;
12542;PMS3003;6337;49.556;25.594;2022-08-01T13:46:19;5.80;3.23;
12542;PMS3003;6337;49.556;25.594;2022-08-01T13:48:47;3.70;3.40;
12542;PMS3003;6337;49.556;25.594;2022-08-01T13:51:15;5.27;4.40;
12542;PMS3003;6337;49.556;25.594;2022-08-01T13:53:44;4.73;4.33;
12542;PMS3003;6337;49.556;25.594;2022-08-01T13:56:11;6.23;4.43;
12542;PMS3003;6337;49.556;25.594;2022-08-01T13:58:41;7.03;4.67;
12542;PMS3003;6337;49.556;25.594;2022-08-01T14:01:10;10.03;5.00;
12542;PMS3003;6337;49.556;25.594;2022-08-01T14:03:39;7.77;5.93;
12542;PMS3003;6337;49.556;25.594;2022-08-01T14:06:06;9.83;7.93;
12542;PMS3003;6337;49.556;25.594;2022-08-01T14:08:34;10.47;8.70;
12542;PMS3003;6337;49.556;25.594;2022-08-01T14:11:02;13.53;10.93;
12542;PMS3003;6337;49.556;25.594;2022-08-01T14:13:29;13.67;11.80;
12542;PMS3003;6337;49.556;25.594;2022-08-01T14:15:58;16.30;10.73;
12542;PMS3003;6337;49.556;25.594;2022-08-01T14:18:26;14.80;12.10;
12542;PMS3003;6337;49.556;25.594;2022-08-01T14:20:55;12.90;10.70;
12542;PMS3003;6337;49.556;25.594;2022-08-01T14:23:22;15.70;11.80;
12542;PMS3003;6337;49.556;25.594;2022-08-01T14:25:50;14.73;11.50;
12542;PMS3003;6337;49.556;25.594;2022-08-01T14:28:19;15.53;12.90;
12542;PMS3003;6337;49.556;25.594;2022-08-01T14:30:49;13.43;12.03;
12542;PMS3003;6337;49.556;25.594;2022-08-01T14:33:16;12.70;11.20;
12542;PMS3003;6337;49.556;25.594;2022-08-01T14:35:44;16.47;13.33;
12542;PMS3003;6337;49.556;25.594;2022-08-01T14:38:13;18.10;14.20;
12542;PMS3003;6337;49.556;25.594;2022-08-01T14:40:41;15.20;12.77;
12542;PMS3003;6337;49.556;25.594;2022-08-01T14:43:08;17.80;14.03;
12542;PMS3003;6337;49.556;25.594;2022-08-01T14:45:35;15.03;13.43;
12542;PMS3003;6337;49.556;25.594;2022-08-01T14:48:03;18.47;14.33;
12542;PMS3003;6337;49.556;25.594;2022-08-01T14:50:31;16.73;14.13;
12542;PMS3003;6337;49.556;25.594;2022-08-01T14:52:58;15.53;13.13;
12542;PMS3003;6337;49.556;25.594;2022-08-01T14:55:28;19.00;15.23;
12542;PMS3003;6337;49.556;25.594;2022-08-01T14:57:55;15.77;14.17;
12542;PMS3003;6337;49.556;25.594;2022-08-01T15:00:22;15.03;12.70;
12542;PMS3003;6337;49.556;25.594;2022-08-01T15:02:50;16.27;14.27;
12542;PMS3003;6337;49.556;25.594;2022-08-01T15:05:17;18.27;12.50;
12542;PMS3003;6337;49.556;25.594;2022-08-01T15:07:45;17.03;13.17;
12542;PMS3003;6337;49.556;25.594;2022-08-01T15:10:12;16.37;12.83;
12542;PMS3003;6337;49.556;25.594;2022-08-01T15:12:43;14.70;13.07;
12542;PMS3003;6337;49.556;25.594;2022-08-01T15:15:11;16.00;13.67;
12542;PMS3003;6337;49.556;25.594;2022-08-01T15:17:39;14.60;12.40;
12542;PMS3003;6337;49.556;25.594;2022-08-01T15:20:07;16.87;12.37;
12542;PMS3003;6337;49.556;25.594;2022-08-01T15:22:34;14.90;12.70;
12542;PMS3003;6337;49.556;25.594;2022-08-01T15:25:02;16.60;12.53;
12542;PMS3003;6337;49.556;25.594;2022-08-01T15:27:37;13.83;12.40;
12542;PMS3003;6337;49.556;25.594;2022-08-01T15:30:07;14.10;12.03;
12542;PMS3003;6337;49.556;25.594;2022-08-01T15:32:36;18.27;10.80;
12542;PMS3003;6337;49.556;25.594;2022-08-01T15:35:06;16.37;14.10;
12542;PMS3003;6337;49.556;25.594;2022-08-01T15:37:35;16.17;12.97;
12542;PMS3003;6337;49.556;25.594;2022-08-01T15:40:03;14.13;10.90;
12542;PMS3003;6337;49.556;25.594;2022-08-01T15:42:31;12.13;11.03;
12542;PMS3003;6337;49.556;25.594;2022-08-01T15:45:00;12.57;11.20;
12542;PMS3003;6337;49.556;25.594;2022-08-01T15:47:29;10.50;9.40;
12542;PMS3003;6337;49.556;25.594;2022-08-01T15:49:56;11.63;10.10;
12542;PMS3003;6337;49.556;25.594;2022-08-01T15:52:26;13.47;11.13;
12542;PMS3003;6337;49.556;25.594;2022-08-01T15:54:55;11.00;9.90;
12542;PMS3003;6337;49.556;25.594;2022-08-01T15:57:22;12.07;10.97;
12542;PMS3003;6337;49.556;25.594;2022-08-01T15:59:51;11.83;10.73;
12542;PMS3003;6337;49.556;25.594;2022-08-01T16:02:19;15.03;11.10;
12542;PMS3003;6337;49.556;25.594;2022-08-01T16:04:48;17.97;12.10;
12542;PMS3003;6337;49.556;25.594;2022-08-01T16:07:17;13.60;12.20;
12542;PMS3003;6337;49.556;25.594;2022-08-01T16:09:45;17.17;12.30;
12542;PMS3003;6337;49.556;25.594;2022-08-01T16:12:12;11.03;10.03;
12542;PMS3003;6337;49.556;25.594;2022-08-01T16:14:40;13.00;11.17;
12542;PMS3003;6337;49.556;25.594;2022-08-01T16:17:08;10.93;9.83;
12542;PMS3003;6337;49.556;25.594;2022-08-01T16:19:36;12.60;11.30;
12542;PMS3003;6337;49.556;25.594;2022-08-01T16:22:07;15.13;12.60;
12542;PMS3003;6337;49.556;25.594;2022-08-01T16:24:35;15.27;10.80;
12542;PMS3003;6337;49.556;25.594;2022-08-01T16:27:02;13.17;11.93;
12542;PMS3003;6337;49.556;25.594;2022-08-01T16:29:31;15.40;11.17;
12542;PMS3003;6337;49.556;25.594;2022-08-01T16:31:59;14.40;11.00;
12542;PMS3003;6337;49.556;25.594;2022-08-01T16:34:27;11.83;10.73;
12542;PMS3003;6337;49.556;25.594;2022-08-01T16:36:54;15.30;12.47;
12542;PMS3003;6337;49.556;25.594;2022-08-01T16:39:23;14.53;12.43;
12542;PMS3003;6337;49.556;25.594;2022-08-01T16:41:50;12.20;10.73;
12542;PMS3003;6337;49.556;25.594;2022-08-01T16:44:18;20.13;11.03;
12542;PMS3003;6337;49.556;25.594;2022-08-01T16:46:45;11.60;9.67;
12542;PMS3003;6337;49.556;25.594;2022-08-01T16:49:13;14.70;9.80;
12542;PMS3003;6337;49.556;25.594;2022-08-01T16:51:40;11.37;8.90;
12542;PMS3003;6337;49.556;25.594;2022-08-01T16:54:09;12.33;11.03;
12542;PMS3003;6337;49.556;25.594;2022-08-01T16:56:38;9.67;8.77;
12542;PMS3003;6337;49.556;25.594;2022-08-01T16:59:05;9.70;8.30;
12542;PMS3003;6337;49.556;25.594;2022-08-01T17:01:34;11.47;8.57;
12542;PMS3003;6337;49.556;25.594;2022-08-01T17:04:02;8.23;7.47;
12542;PMS3003;6337;49.556;25.594;2022-08-01T17:06:29;11.77;8.03;
12542;PMS3003;6337;49.556;25.594;2022-08-01T17:08:58;8.97;8.07;
12542;PMS3003;6337;49.556;25.594;2022-08-01T17:11:28;11.87;8.17;
12542;PMS3003;6337;49.556;25.594;2022-08-01T17:13:58;11.33;7.27;
12542;PMS3003;6337;49.556;25.594;2022-08-01T17:16:25;8.00;6.70;
12542;PMS3003;6337;49.556;25.594;2022-08-01T17:18:54;10.20;7.50;
12542;PMS3003;6337;49.556;25.594;2022-08-01T17:21:21;9.60;6.00;
12542;PMS3003;6337;49.556;25.594;2022-08-01T17:23:49;9.87;6.93;
12542;PMS3003;6337;49.556;25.594;2022-08-01T17:26:17;7.30;6.33;
12542;PMS3003;6337;49.556;25.594;2022-08-01T17:28:44;7.03;5.90;
12542;PMS3003;6337;49.556;25.594;2022-08-01T17:31:14;6.03;5.43;
12542;PMS3003;6337;49.556;25.594;2022-08-01T17:33:44;13.63;5.47;
12542;PMS3003;6337;49.556;25.594;2022-08-01T17:36:12;7.40;6.20;
12542;PMS3003;6337;49.556;25.594;2022-08-01T17:38:41;6.50;5.13;
12542;PMS3003;6337;49.556;25.594;2022-08-01T17:41:09;5.47;4.93;
12542;PMS3003;6337;49.556;25.594;2022-08-01T17:43:36;5.40;4.90;
12542;PMS3003;6337;49.556;25.594;2022-08-01T17:46:04;5.80;5.30;
12542;PMS3003;6337;49.556;25.594;2022-08-01T17:48:34;11.93;6.83;
12542;PMS3003;6337;49.556;25.594;2022-08-01T17:51:01;6.13;5.40;
12542;PMS3003;6337;49.556;25.594;2022-08-01T17:53:30;5.80;5.30;
12542;PMS3003;6337;49.556;25.594;2022-08-01T17:55:58;8.43;6.33;
12542;PMS3003;6337;49.556;25.594;2022-08-01T17:58:29;10.13;6.50;
12542;PMS3003;6337;49.556;25.594;2022-08-01T18:00:57;5.90;5.40;
12542;PMS3003;6337;49.556;25.594;2022-08-01T18:03:24;5.87;5.40;
12542;PMS3003;6337;49.556;25.594;2022-08-01T18:05:54;5.60;5.10;
12542;PMS3003;6337;49.556;25.594;2022-08-01T18:08:22;6.93;6.33;
12542;PMS3003;6337;49.556;25.594;2022-08-01T18:10:51;7.50;6.77;
12542;PMS3003;6337;49.556;25.594;2022-08-01T18:13:19;8.83;6.03;
12542;PMS3003;6337;49.556;25.594;2022-08-01T18:15:48;9.13;8.20;
12542;PMS3003;6337;49.556;25.594;2022-08-01T18:18:16;8.83;7.93;
12542;PMS3003;6337;49.556;25.594;2022-08-01T18:20:45;10.60;9.50;
12542;PMS3003;6337;49.556;25.594;2022-08-01T18:23:15;15.40;11.60;
12542;PMS3003;6337;49.556;25.594;2022-08-01T18:25:42;11.00;10.00;
12542;PMS3003;6337;49.556;25.594;2022-08-01T18:28:09;18.03;11.40;
12542;PMS3003;6337;49.556;25.594;2022-08-01T18:30:37;14.57;10.67;
12542;PMS3003;6337;49.556;25.594;2022-08-01T18:33:05;16.50;12.93;
12542;PMS3003;6337;49.556;25.594;2022-08-01T18:35:33;24.40;16.40;
12542;PMS3003;6337;49.556;25.594;2022-08-01T18:38:00;20.43;15.53;
12542;PMS3003;6337;49.556;25.594;2022-08-01T18:40:32;20.03;14.57;
12542;PMS3003;6337;49.556;25.594;2022-08-01T18:43:00;21.77;14.07;
12542;PMS3003;6337;49.556;25.594;2022-08-01T18:45:31;23.50;14.50;
12542;PMS3003;6337;49.556;25.594;2022-08-01T18:48:00;21.40;15.83;
12542;PMS3003;6337;49.556;25.594;2022-08-01T18:50:29;21.63;14.20;
12542;PMS3003;6337;49.556;25.594;2022-08-01T18:52:56;20.53;15.17;
12542;PMS3003;6337;49.556;25.594;2022-08-01T18:55:24;23.60;15.50;
12542;PMS3003;6337;49.556;25.594;2022-08-01T18:57:53;24.03;16.07;
12542;PMS3003;6337;49.556;25.594;2022-08-01T19:00:20;23.20;16.67;
12542;PMS3003;6337;49.556;25.594;2022-08-01T19:02:48;22.47;15.33;
12542;PMS3003;6337;49.556;25.594;2022-08-01T19:05:15;26.27;16.30;
12542;PMS3003;6337;49.556;25.594;2022-08-01T19:07:43;22.27;14.63;
12542;PMS3003;6337;49.556;25.594;2022-08-01T20:08:55;12.47;10.73;
12542;PMS3003;6337;49.556;25.594;2022-08-01T20:11:23;16.50;11.07;
12542;PMS3003;6337;49.556;25.594;2022-08-01T20:13:52;14.93;9.90;
12542;PMS3003;6337;49.556;25.594;2022-08-01T20:46:36;8.43;7.57;
12542;PMS3003;6337;49.556;25.594;2022-08-01T20:49:04;13.43;7.90;
12542;PMS3003;6337;49.556;25.594;2022-08-01T20:51:33;12.93;8.47;
12542;PMS3003;6337;49.556;25.594;2022-08-01T20:54:00;8.60;7.80;
12542;PMS3003;6337;49.556;25.594;2022-08-01T20:56:33;12.90;7.57;
12542;PMS3003;6337;49.556;25.594;2022-08-01T20:59:03;7.27;6.57;
12542;PMS3003;6337;49.556;25.594;2022-08-01T21:01:33;6.97;6.30;
12542;PMS3003;6337;49.556;25.594;2022-08-01T21:04:13;7.37;6.67;
12542;PMS3003;6337;49.556;25.594;2022-08-01T21:06:58;7.23;6.53;
12542;PMS3003;6337;49.556;25.594;2022-08-01T21:09:29;6.37;5.70;
12542;PMS3003;6337;49.556;25.594;2022-08-01T21:12:02;6.53;5.93;
12542;PMS3003;6337;49.556;25.594;2022-08-01T21:14:34;7.73;6.93;
12542;PMS3003;6337;49.556;25.594;2022-08-01T21:17:11;6.53;5.90;
12542;PMS3003;6337;49.556;25.594;2022-08-01T21:19:43;10.63;6.23;
12542;PMS3003;6337;49.556;25.594;2022-08-01T21:22:14;6.70;6.07;
12542;PMS3003;6337;49.556;25.594;2022-08-01T21:24:53;6.90;6.40;
12542;PMS3003;6337;49.556;25.594;2022-08-01T21:27:25;10.97;7.47;
12542;PMS3003;6337;49.556;25.594;2022-08-01T21:29:54;8.00;6.73;
12542;PMS3003;6337;49.556;25.594;2022-08-01T21:32:23;7.33;5.90;
12542;PMS3003;6337;49.556;25.594;2022-08-01T21:34:55;7.07;6.37;
12542;PMS3003;6337;49.556;25.594;2022-08-01T21:37:22;10.40;7.80;
12542;PMS3003;6337;49.556;25.594;2022-08-01T21:39:50;12.00;6.60;
12542;PMS3003;6337;49.556;25.594;2022-08-01T21:42:17;7.70;7.03;
12542;PMS3003;6337;49.556;25.594;2022-08-01T21:44:45;7.87;7.13;
12542;PMS3003;6337;49.556;25.594;2022-08-01T21:47:13;7.33;6.57;
12542;PMS3003;6337;49.556;25.594;2022-08-01T21:49:49;6.53;5.93;
12542;PMS3003;6337;49.556;25.594;2022-08-01T21:52:17;8.03;5.63;
12542;PMS3003;6337;49.556;25.594;2022-08-01T21:54:51;7.93;6.37;
12542;PMS3003;6337;49.556;25.594;2022-08-01T21:57:30;6.17;5.67;
12542;PMS3003;6337;49.556;25.594;2022-08-01T22:00:07;13.67;6.70;
12542;PMS3003;6337;49.556;25.594;2022-08-01T22:02:37;6.80;6.10;
12542;PMS3003;6337;49.556;25.594;2022-08-01T22:05:10;8.03;6.57;
12542;PMS3003;6337;49.556;25.594;2022-08-01T22:07:40;7.57;6.23;
12542;PMS3003;6337;49.556;25.594;2022-08-01T22:10:12;12.30;7.67;
12542;PMS3003;6337;49.556;25.594;2022-08-01T22:12:40;9.50;6.00;
12542;PMS3003;6337;49.556;25.594;2022-08-01T22:15:07;6.93;6.33;
12542;PMS3003;6337;49.556;25.594;2022-08-01T22:17:35;10.90;7.37;
12542;PMS3003;6337;49.556;25.594;2022-08-01T22:20:03;9.17;7.13;
12542;PMS3003;6337;49.556;25.594;2022-08-01T22:22:32;7.63;5.90;
12542;PMS3003;6337;49.556;25.594;2022-08-01T22:25:00;7.40;6.40;
12542;PMS3003;6337;49.556;25.594;2022-08-01T22:27:28;7.73;6.87;
12542;PMS3003;6337;49.556;25.594;2022-08-01T22:29:57;7.13;6.53;
12542;PMS3003;6337;49.556;25.594;2022-08-01T22:32:26;12.17;8.47;
12542;PMS3003;6337;49.556;25.594;2022-08-01T22:34:54;7.30;6.60;
12542;PMS3003;6337;49.556;25.594;2022-08-01T22:37:23;6.43;5.83;
12542;PMS3003;6337;49.556;25.594;2022-08-01T22:39:52;7.07;6.47;
12542;PMS3003;6337;49.556;25.594;2022-08-01T22:42:20;9.47;8.37;
12542;PMS3003;6337;49.556;25.594;2022-08-01T22:44:54;7.57;6.87;
12542;PMS3003;6337;49.556;25.594;2022-08-01T22:47:28;7.70;6.90;
12542;PMS3003;6337;49.556;25.594;2022-08-01T22:50:04;8.17;7.20;
12542;PMS3003;6337;49.556;25.594;2022-08-01T22:52:32;7.37;6.60;
12542;PMS3003;6337;49.556;25.594;2022-08-01T22:55:09;7.23;6.63;
12542;PMS3003;6337;49.556;25.594;2022-08-01T22:57:39;7.70;7.00;
12542;PMS3003;6337;49.556;25.594;2022-08-01T23:00:10;8.70;7.90;
12542;PMS3003;6337;49.556;25.594;2022-08-01T23:02:39;7.97;7.17;
12542;PMS3003;6337;49.556;25.594;2022-08-01T23:05:13;9.60;7.17;
12542;PMS3003;6337;49.556;25.594;2022-08-01T23:07:42;8.17;7.07;
12542;PMS3003;6337;49.556;25.594;2022-08-01T23:10:13;7.57;6.70;
12542;PMS3003;6337;49.556;25.594;2022-08-01T23:12:41;7.00;6.30;
12542;PMS3003;6337;49.556;25.594;2022-08-01T23:15:10;12.50;6.83;
12542;PMS3003;6337;49.556;25.594;2022-08-01T23:17:38;7.70;6.70;
12542;PMS3003;6337;49.556;25.594;2022-08-01T23:20:05;7.30;6.47;
12542;PMS3003;6337;49.556;25.594;2022-08-01T23:22:35;10.20;9.17;
12542;PMS3003;6337;49.556;25.594;2022-08-01T23:25:04;7.33;6.70;
12542;PMS3003;6337;49.556;25.594;2022-08-01T23:27:36;14.90;7.97;
12542;PMS3003;6337;49.556;25.594;2022-08-01T23:30:04;18.90;8.63;